sensor_id;sensor_type;location;lat;lon;timestamp;temperature;humidity
23495;DHT22;26107;50.832;2.950;2023-08-20T00:00:29;21.30;99.90
23495;DHT22;26107;50.832;2.950;2023-08-20T00:15:30;20.70;99.90
23495;DHT22;26107;50.832;2.950;2023-08-20T00:30:33;21.40;99.90
23495;DHT22;26107;50.832;2.950;2023-08-20T00:45:34;21.20;99.90
23495;DHT22;26107;50.832;2.950;2023-08-20T01:00:34;21.10;99.90
23495;DHT22;26107;50.832;2.950;2023-08-20T01:15:37;20.70;99.90
23495;DHT22;26107;50.832;2.950;2023-08-20T01:30:38;20.90;99.90
23495;DHT22;26107;50.832;2.950;2023-08-20T01:45:38;20.50;99.90
23495;DHT22;26107;50.832;2.950;2023-08-20T02:00:41;20.40;99.90
23495;DHT22;26107;50.832;2.950;2023-08-20T02:15:41;19.90;99.90
23495;DHT22;26107;50.832;2.950;2023-08-20T02:30:45;20.10;99.90
23495;DHT22;26107;50.832;2.950;2023-08-20T02:45:45;19.60;99.90
23495;DHT22;26107;50.832;2.950;2023-08-20T03:00:48;19.60;99.90
23495;DHT22;26107;50.832;2.950;2023-08-20T03:15:49;19.70;99.90
23495;DHT22;26107;50.832;2.950;2023-08-20T03:30:50;19.60;99.90
23495;DHT22;26107;50.832;2.950;2023-08-20T03:45:51;19.50;99.90
23495;DHT22;26107;50.832;2.950;2023-08-20T04:00:51;19.50;99.90
23495;DHT22;26107;50.832;2.950;2023-08-20T04:15:52;19.10;99.90
23495;DHT22;26107;50.832;2.950;2023-08-20T04:30:55;18.70;99.90
23495;DHT22;26107;50.832;2.950;2023-08-20T04:45:56;19.00;99.90
23495;DHT22;26107;50.832;2.950;2023-08-20T05:00:57;19.30;99.90
23495;DHT22;26107;50.832;2.950;2023-08-20T05:15:57;19.30;99.90
23495;DHT22;26107;50.832;2.950;2023-08-20T05:30:58;19.20;99.90
23495;DHT22;26107;50.832;2.950;2023-08-20T05:45:58;19.30;99.90
23495;DHT22;26107;50.832;2.950;2023-08-20T06:00:59;19.40;99.90
23495;DHT22;26107;50.832;2.950;2023-08-20T06:16:02;19.80;99.90
23495;DHT22;26107;50.832;2.950;2023-08-20T06:31:05;19.90;99.90
23495;DHT22;26107;50.832;2.950;2023-08-20T06:46:05;20.00;99.90
23495;DHT22;26107;50.832;2.950;2023-08-20T07:01:08;20.40;99.90
23495;DHT22;26107;50.832;2.950;2023-08-20T07:16:09;20.50;99.90
23495;DHT22;26107;50.832;2.950;2023-08-20T07:31:09;20.40;99.90
23495;DHT22;26107;50.832;2.950;2023-08-20T07:46:10;20.50;99.90
23495;DHT22;26107;50.832;2.950;2023-08-20T08:01:13;20.80;99.90
23495;DHT22;26107;50.832;2.950;2023-08-20T08:16:13;20.90;99.90
23495;DHT22;26107;50.832;2.950;2023-08-20T08:31:14;21.30;99.90
23495;DHT22;26107;50.832;2.950;2023-08-20T08:46:17;21.50;99.90
23495;DHT22;26107;50.832;2.950;2023-08-20T09:01:18;21.30;99.90
23495;DHT22;26107;50.832;2.950;2023-08-20T09:16:20;21.50;99.90
23495;DHT22;26107;50.832;2.950;2023-08-20T09:31:39;22.00;99.90
23495;DHT22;26107;50.832;2.950;2023-08-20T09:46:42;21.90;99.90
23495;DHT22;26107;50.832;2.950;2023-08-20T10:01:43;22.30;99.90
23495;DHT22;26107;50.832;2.950;2023-08-20T10:16:44;22.80;99.90
23495;DHT22;26107;50.832;2.950;2023-08-20T10:31:47;23.50;99.90
23495;DHT22;26107;50.832;2.950;2023-08-20T10:46:51;23.80;99.90
23495;DHT22;26107;50.832;2.950;2023-08-20T11:01:56;23.10;99.90
23495;DHT22;26107;50.832;2.950;2023-08-20T11:16:57;23.90;99.90
23495;DHT22;26107;50.832;2.950;2023-08-20T11:31:58;23.90;99.90
23495;DHT22;26107;50.832;2.950;2023-08-20T11:46:58;24.30;99.90
23495;DHT22;26107;50.832;2.950;2023-08-20T12:02:02;24.50;99.90
23495;DHT22;26107;50.832;2.950;2023-08-20T12:17:05;24.90;99.90
23495;DHT22;26107;50.832;2.950;2023-08-20T12:32:06;25.40;99.90
23495;DHT22;26107;50.832;2.950;2023-08-20T12:47:10;25.40;99.90
23495;DHT22;26107;50.832;2.950;2023-08-20T13:02:12;26.50;99.90
23495;DHT22;26107;50.832;2.950;2023-08-20T13:17:16;26.70;99.90
23495;DHT22;26107;50.832;2.950;2023-08-20T13:32:17;26.10;99.90
23495;DHT22;26107;50.832;2.950;2023-08-20T13:47:17;25.80;99.90
23495;DHT22;26107;50.832;2.950;2023-08-20T14:02:18;25.90;99.90
23495;DHT22;26107;50.832;2.950;2023-08-20T14:17:21;25.10;99.90
23495;DHT22;26107;50.832;2.950;2023-08-20T14:32:23;24.90;99.90
23495;DHT22;26107;50.832;2.950;2023-08-20T14:47:24;25.20;99.90
23495;DHT22;26107;50.832;2.950;2023-08-20T15:02:25;26.40;99.90
23495;DHT22;26107;50.832;2.950;2023-08-20T15:17:28;26.30;99.90
23495;DHT22;26107;50.832;2.950;2023-08-20T15:32:29;26.20;99.90
23495;DHT22;26107;50.832;2.950;2023-08-20T15:47:30;26.10;99.90
23495;DHT22;26107;50.832;2.950;2023-08-20T16:02:35;26.70;99.90
23495;DHT22;26107;50.832;2.950;2023-08-20T16:17:36;26.50;99.90
23495;DHT22;26107;50.832;2.950;2023-08-20T16:32:37;26.20;99.90
23495;DHT22;26107;50.832;2.950;2023-08-20T16:47:37;27.70;99.90
23495;DHT22;26107;50.832;2.950;2023-08-20T17:02:38;31.70;99.90
23495;DHT22;26107;50.832;2.950;2023-08-20T17:17:41;32.80;99.20
23495;DHT22;26107;50.832;2.950;2023-08-20T17:32:41;33.20;95.90
23495;DHT22;26107;50.832;2.950;2023-08-20T17:47:44;35.20;94.20
23495;DHT22;26107;50.832;2.950;2023-08-20T18:02:45;32.70;93.80
23495;DHT22;26107;50.832;2.950;2023-08-20T18:17:45;30.90;94.90
23495;DHT22;26107;50.832;2.950;2023-08-20T18:32:46;28.40;98.50
23495;DHT22;26107;50.832;2.950;2023-08-20T18:47:46;26.70;99.90
23495;DHT22;26107;50.832;2.950;2023-08-20T19:02:47;26.40;99.90
23495;DHT22;26107;50.832;2.950;2023-08-20T19:17:48;25.60;99.90
23495;DHT22;26107;50.832;2.950;2023-08-20T19:32:48;25.00;99.90
23495;DHT22;26107;50.832;2.950;2023-08-20T19:47:49;24.60;99.90
23495;DHT22;26107;50.832;2.950;2023-08-20T20:02:52;24.30;99.90
23495;DHT22;26107;50.832;2.950;2023-08-20T20:17:53;24.10;99.90
23495;DHT22;26107;50.832;2.950;2023-08-20T20:32:54;23.90;99.90
23495;DHT22;26107;50.832;2.950;2023-08-20T20:47:57;23.80;99.90
23495;DHT22;26107;50.832;2.950;2023-08-20T21:02:58;23.60;99.90
23495;DHT22;26107;50.832;2.950;2023-08-20T21:17:58;23.40;99.90
23495;DHT22;26107;50.832;2.950;2023-08-20T21:32:59;23.10;99.90
23495;DHT22;26107;50.832;2.950;2023-08-20T21:48:00;23.30;99.90
23495;DHT22;26107;50.832;2.950;2023-08-20T22:03:00;23.10;99.90
23495;DHT22;26107;50.832;2.950;2023-08-20T22:18:03;22.80;99.90
23495;DHT22;26107;50.832;2.950;2023-08-20T22:33:07;21.70;99.90
23495;DHT22;26107;50.832;2.950;2023-08-20T22:48:07;21.60;99.90
23495;DHT22;26107;50.832;2.950;2023-08-20T23:03:08;22.40;99.90
23495;DHT22;26107;50.832;2.950;2023-08-20T23:18:11;22.30;99.90
23495;DHT22;26107;50.832;2.950;2023-08-20T23:33:11;21.90;99.90
23495;DHT22;26107;50.832;2.950;2023-08-20T23:48:12;21.90;99.90
